createdAt,value
2022-12-20T00:02:18.552Z,18.13
2022-12-20T00:04:46.300Z,18.88
2022-12-20T00:07:13.772Z,19.85
2022-12-20T00:09:41.335Z,19.50
2022-12-20T00:12:08.691Z,21.05
2022-12-20T00:14:36.046Z,24.20
2022-12-20T00:17:06.011Z,22.77
2022-12-20T00:19:33.521Z,24.83
2022-12-20T00:22:03.742Z,21.15
2022-12-20T00:24:33.052Z,20.30
2022-12-20T00:27:03.465Z,19.58
2022-12-20T00:29:35.845Z,19.10
2022-12-20T00:32:03.218Z,18.33
2022-12-20T00:34:35.664Z,17.38
2022-12-20T00:37:04.347Z,18.63
2022-12-20T00:39:36.620Z,17.40
2022-12-20T00:42:06.642Z,17.70
2022-12-20T00:44:37.059Z,16.27
2022-12-20T00:47:07.171Z,16.15
2022-12-20T00:49:34.852Z,15.38
2022-12-20T00:52:05.272Z,15.88
2022-12-20T00:54:35.699Z,16.70
2022-12-20T00:57:08.379Z,15.65
2022-12-20T00:59:40.673Z,15.52
2022-12-20T01:02:11.258Z,15.02
2022-12-20T01:04:38.838Z,16.38
2022-12-20T01:07:09.166Z,14.80
2022-12-20T01:09:36.513Z,15.40
2022-12-20T01:12:04.180Z,13.68
2022-12-20T01:14:34.083Z,13.88
2022-12-20T01:17:04.336Z,13.65
2022-12-20T01:19:31.767Z,14.23
2022-12-20T01:22:02.296Z,13.43
2022-12-20T01:24:34.053Z,13.40
2022-12-20T01:27:01.612Z,13.45
2022-12-20T01:29:31.434Z,15.15
2022-12-20T01:31:59.033Z,14.38
2022-12-20T01:34:32.376Z,14.80
2022-12-20T01:37:02.729Z,13.02
2022-12-20T01:39:30.282Z,13.95
2022-12-20T01:41:57.515Z,13.15
2022-12-20T01:44:26.694Z,13.90
2022-12-20T01:46:55.091Z,13.93
2022-12-20T01:49:35.141Z,13.20
2022-12-20T01:52:20.625Z,12.98
2022-12-20T01:55:02.533Z,13.32
2022-12-20T01:57:49.293Z,12.77
2022-12-20T02:00:17.299Z,12.98
2022-12-20T02:02:47.037Z,12.77
2022-12-20T02:05:15.355Z,13.70
2022-12-20T02:07:46.304Z,13.13
2022-12-20T02:10:13.445Z,13.38
2022-12-20T02:12:43.003Z,13.95
2022-12-20T02:15:29.036Z,12.65
2022-12-20T02:18:01.731Z,12.90
2022-12-20T02:21:05.492Z,13.98
2022-12-20T02:24:12.609Z,12.75
2022-12-20T02:26:57.681Z,11.50
2022-12-20T02:29:56.544Z,12.57
2022-12-20T02:32:37.690Z,11.73
2022-12-20T02:35:07.926Z,12.18
2022-12-20T02:37:34.869Z,11.20
2022-12-20T02:40:04.711Z,10.13
2022-12-20T02:42:32.955Z,11.10
2022-12-20T02:45:15.479Z,10.57
2022-12-20T02:47:45.380Z,10.45
2022-12-20T02:50:13.058Z,10.65
2022-12-20T02:52:42.533Z,10.75
2022-12-20T02:55:09.814Z,9.98
2022-12-20T02:57:39.700Z,9.88
2022-12-20T03:00:18.832Z,10.32
2022-12-20T03:03:05.969Z,11.38
2022-12-20T03:05:44.475Z,11.00
2022-12-20T03:08:11.665Z,10.27
2022-12-20T03:10:38.644Z,10.52
2022-12-20T03:13:05.654Z,11.80
2022-12-20T03:15:32.514Z,12.57
2022-12-20T03:17:59.336Z,11.55
2022-12-20T03:20:26.178Z,11.27
2022-12-20T03:22:52.983Z,11.32
2022-12-20T03:25:20.568Z,10.73
2022-12-20T03:27:47.793Z,10.93
2022-12-20T03:30:15.310Z,11.75
2022-12-20T03:32:42.224Z,10.98
2022-12-20T03:35:09.483Z,11.07
2022-12-20T03:37:36.520Z,10.30
2022-12-20T03:40:03.804Z,10.57
2022-12-20T03:42:30.723Z,11.23
2022-12-20T03:44:57.565Z,10.45
2022-12-20T03:47:24.620Z,10.13
2022-12-20T03:49:52.103Z,10.57
2022-12-20T03:55:00.500Z,11.93
2022-12-20T03:57:27.615Z,11.05
2022-12-20T03:59:54.602Z,10.48
2022-12-20T04:02:22.739Z,10.88
2022-12-20T04:04:50.451Z,11.98
2022-12-20T04:07:17.321Z,11.68
2022-12-20T04:09:44.168Z,12.00
2022-12-20T04:12:10.983Z,10.45
2022-12-20T04:14:37.839Z,11.52
2022-12-20T04:17:05.096Z,9.45
2022-12-20T04:19:31.999Z,10.68
2022-12-20T04:22:04.758Z,9.82
2022-12-20T04:24:32.732Z,11.93
2022-12-20T04:26:59.567Z,10.32
2022-12-20T04:29:26.388Z,11.07
2022-12-20T04:31:53.245Z,11.30
2022-12-20T04:34:20.169Z,9.57
2022-12-20T04:36:47.112Z,10.65
2022-12-20T04:39:14.092Z,10.15
2022-12-20T04:41:40.948Z,11.02
2022-12-20T04:44:07.903Z,10.25
2022-12-20T04:46:34.901Z,10.65
2022-12-20T04:49:01.801Z,10.50
2022-12-20T04:51:29.147Z,10.02
2022-12-20T04:53:56.695Z,10.02
2022-12-20T04:56:26.283Z,10.20
2022-12-20T04:58:54.500Z,8.70
2022-12-20T05:01:22.376Z,7.97
2022-12-20T05:03:49.702Z,8.68
2022-12-20T05:06:17.224Z,8.40
2022-12-20T05:08:44.240Z,7.65
2022-12-20T05:11:11.183Z,8.40
2022-12-20T05:13:38.007Z,7.38
2022-12-20T05:16:05.092Z,7.97
2022-12-20T05:18:32.595Z,8.20
2022-12-20T05:21:19.293Z,7.68
2022-12-20T05:24:05.373Z,7.80
2022-12-20T05:26:34.619Z,7.80
2022-12-20T05:29:01.548Z,7.97
2022-12-20T05:31:28.711Z,8.35
2022-12-20T05:33:55.581Z,8.43
2022-12-20T05:36:22.524Z,7.90
2022-12-20T05:38:49.990Z,8.23
2022-12-20T05:41:16.838Z,9.45
2022-12-20T05:43:43.644Z,8.57
2022-12-20T05:46:10.894Z,11.32
2022-12-20T05:48:37.979Z,11.35
2022-12-20T05:51:05.183Z,11.18
2022-12-20T05:53:32.088Z,11.60
2022-12-20T05:55:59.497Z,12.00
2022-12-20T05:58:26.309Z,11.55
2022-12-20T06:00:53.583Z,11.38
2022-12-20T06:03:20.523Z,11.23
2022-12-20T06:05:47.500Z,12.95
2022-12-20T06:08:14.602Z,13.50
2022-12-20T06:10:42.218Z,12.55
2022-12-20T06:13:10.136Z,11.27
2022-12-20T06:15:37.520Z,12.40
2022-12-20T06:18:04.611Z,13.43
2022-12-20T06:20:31.546Z,12.73
2022-12-20T06:22:58.468Z,10.70
2022-12-20T06:25:25.692Z,12.23
2022-12-20T06:27:52.579Z,11.95
2022-12-20T06:30:20.078Z,11.23
2022-12-20T06:32:47.196Z,10.75
2022-12-20T06:35:14.882Z,11.35
2022-12-20T06:37:42.228Z,10.98
2022-12-20T06:40:12.555Z,11.95
2022-12-20T06:42:39.597Z,10.32
2022-12-20T06:45:07.071Z,11.15
2022-12-20T06:47:33.938Z,11.25
2022-12-20T06:50:00.784Z,12.27
2022-12-20T06:52:27.654Z,12.40
2022-12-20T06:54:54.465Z,13.00
2022-12-20T06:57:21.445Z,13.45
2022-12-20T06:59:48.391Z,13.65
2022-12-20T07:02:15.422Z,14.43
2022-12-20T07:04:42.498Z,13.88
2022-12-20T07:07:09.513Z,14.18
2022-12-20T07:09:37.946Z,13.73
2022-12-20T07:12:05.402Z,14.68
2022-12-20T07:14:32.247Z,16.92
2022-12-20T07:16:59.198Z,16.30
2022-12-20T07:19:26.315Z,17.08
2022-12-20T07:21:53.152Z,17.85
2022-12-20T07:24:20.071Z,18.52
2022-12-20T07:26:46.951Z,15.68
2022-12-20T07:29:15.959Z,14.63
2022-12-20T07:31:43.155Z,15.30
2022-12-20T07:34:11.332Z,15.50
2022-12-20T07:36:38.506Z,17.77
2022-12-20T07:39:05.427Z,15.88
2022-12-20T07:41:32.274Z,11.45
2022-12-20T07:43:59.636Z,9.07
2022-12-20T07:46:27.220Z,8.43
2022-12-20T07:48:55.273Z,14.93
2022-12-20T07:51:26.330Z,12.05
2022-12-20T07:53:59.174Z,11.07
2022-12-20T07:56:27.239Z,12.05
2022-12-20T07:58:58.530Z,13.43
2022-12-20T08:01:30.645Z,11.70
2022-12-20T08:06:30.270Z,10.85
2022-12-20T08:09:00.597Z,10.85
2022-12-20T08:11:29.560Z,13.05
2022-12-20T08:13:58.393Z,12.32
2022-12-20T08:16:25.976Z,11.05
2022-12-20T08:18:52.891Z,10.95
2022-12-20T08:21:19.815Z,12.07
2022-12-20T08:23:46.627Z,10.80
2022-12-20T08:26:13.463Z,8.60
2022-12-20T08:28:40.481Z,8.73
2022-12-20T08:31:09.395Z,9.02
2022-12-20T08:33:37.955Z,7.95
2022-12-20T08:36:11.657Z,7.55
2022-12-20T08:38:39.210Z,7.55
2022-12-20T08:41:15.982Z,7.65
2022-12-20T08:43:43.576Z,8.05
2022-12-20T08:46:12.223Z,7.15
2022-12-20T08:48:39.469Z,9.55
2022-12-20T08:51:10.849Z,9.55
2022-12-20T08:53:38.401Z,8.80
2022-12-20T08:56:17.121Z,10.90
2022-12-20T08:58:45.084Z,10.77
2022-12-20T09:01:15.194Z,13.50
2022-12-20T09:03:42.715Z,13.73
2022-12-20T09:06:13.202Z,13.23
2022-12-20T09:08:40.788Z,12.95
2022-12-20T09:11:17.034Z,14.65
2022-12-20T09:13:46.371Z,17.52
2022-12-20T09:16:15.466Z,17.70
2022-12-20T09:18:42.754Z,36.97
2022-12-20T09:21:11.555Z,54.25
2022-12-20T09:23:40.025Z,35.83
2022-12-20T09:26:10.504Z,28.65
2022-12-20T09:28:37.328Z,18.98
2022-12-20T09:31:06.668Z,14.13
2022-12-20T09:33:34.615Z,14.15
2022-12-20T09:36:02.296Z,14.43
2022-12-20T09:38:31.150Z,13.93
2022-12-20T09:41:06.892Z,14.93
2022-12-20T09:43:34.789Z,14.63
2022-12-20T09:46:04.051Z,14.52
2022-12-20T09:48:33.737Z,14.02
2022-12-20T09:51:12.532Z,16.40
2022-12-20T09:59:06.143Z,16.55
2022-12-20T10:01:39.472Z,17.30
2022-12-20T10:04:23.745Z,20.98
2022-12-20T10:07:05.851Z,19.00
2022-12-20T10:10:10.219Z,18.92
2022-12-20T10:13:00.351Z,16.95
2022-12-20T10:15:36.901Z,18.25
2022-12-20T10:18:28.768Z,16.08
2022-12-20T10:21:03.667Z,15.25
2022-12-20T10:23:36.259Z,14.63
2022-12-20T10:26:10.237Z,13.77
2022-12-20T10:28:37.598Z,18.02
2022-12-20T10:31:12.752Z,16.02
2022-12-20T10:33:40.896Z,16.15
2022-12-20T10:36:26.303Z,14.93
2022-12-20T10:39:05.752Z,17.15
2022-12-20T10:41:42.832Z,17.63
2022-12-20T10:44:39.241Z,16.88
2022-12-20T10:47:41.743Z,16.17
2022-12-20T10:50:14.807Z,15.05
2022-12-20T10:52:42.597Z,17.77
2022-12-20T10:55:36.899Z,18.67
2022-12-20T10:58:35.284Z,19.52
2022-12-20T11:01:06.394Z,12.43
2022-12-20T11:03:33.418Z,10.13
2022-12-20T11:06:04.537Z,11.55
2022-12-20T11:08:39.110Z,14.20
2022-12-20T11:11:13.037Z,14.77
2022-12-20T11:13:41.410Z,15.40
2022-12-20T11:16:25.819Z,15.50
2022-12-20T11:19:06.117Z,15.45
2022-12-20T11:21:50.490Z,16.75
2022-12-20T11:24:49.494Z,15.25
2022-12-20T11:27:22.679Z,15.40
2022-12-20T11:29:56.656Z,15.50
2022-12-20T11:32:35.565Z,11.70
2022-12-20T11:35:19.627Z,11.30
2022-12-20T11:38:09.532Z,11.85
2022-12-20T11:40:39.342Z,12.38
2022-12-20T11:43:12.138Z,14.13
2022-12-20T11:45:54.063Z,13.25
2022-12-20T11:48:55.514Z,12.30
2022-12-20T11:51:43.714Z,12.48
2022-12-20T11:54:29.298Z,13.38
2022-12-20T11:57:13.683Z,14.15
2022-12-20T11:59:44.916Z,15.90
2022-12-20T12:02:22.367Z,15.63
2022-12-20T12:05:18.773Z,15.60
2022-12-20T12:07:52.020Z,15.00
2022-12-20T12:10:36.531Z,17.80
2022-12-20T12:13:23.494Z,15.95
2022-12-20T12:16:03.807Z,17.35
2022-12-20T12:18:35.995Z,15.95
2022-12-20T12:24:27.153Z,14.60
2022-12-20T12:26:54.148Z,15.48
2022-12-20T12:29:22.272Z,13.98
2022-12-20T12:32:30.786Z,14.63
2022-12-20T12:35:24.113Z,14.32
2022-12-20T12:38:19.827Z,12.57
2022-12-20T12:40:53.099Z,14.50
2022-12-20T12:43:38.724Z,13.18
2022-12-20T12:46:24.675Z,14.38
2022-12-20T12:48:54.805Z,15.57
2022-12-20T12:51:38.841Z,16.02
2022-12-20T12:54:26.053Z,16.52
2022-12-20T12:56:55.690Z,15.95
2022-12-20T12:59:27.567Z,14.25
2022-12-20T13:01:56.064Z,14.98
2022-12-20T13:04:29.092Z,16.52
2022-12-20T13:07:00.014Z,15.65
2022-12-20T13:09:27.141Z,16.17
2022-12-20T13:12:01.298Z,15.40
2022-12-20T13:14:29.154Z,15.48
2022-12-20T13:17:13.825Z,14.88
2022-12-20T13:19:54.790Z,15.95
2022-12-20T13:22:26.058Z,16.35
2022-12-20T13:24:58.737Z,15.03
2022-12-20T13:27:42.177Z,15.65
2022-12-20T13:30:14.794Z,14.80
2022-12-20T13:32:48.043Z,15.00
2022-12-20T13:35:28.050Z,16.23
2022-12-20T13:38:07.089Z,15.25
2022-12-20T13:40:47.112Z,14.73
2022-12-20T13:43:20.220Z,13.77
2022-12-20T13:45:48.507Z,13.68
2022-12-20T13:48:25.527Z,13.85
2022-12-20T13:50:55.230Z,13.50
2022-12-20T13:53:24.327Z,12.50
2022-12-20T13:55:51.699Z,11.23
2022-12-20T13:58:23.933Z,10.93
2022-12-20T14:03:27.677Z,11.45
2022-12-20T14:06:01.970Z,13.32
2022-12-20T14:08:34.469Z,14.40
2022-12-20T14:11:11.364Z,15.73
2022-12-20T14:13:38.671Z,14.00
2022-12-20T14:16:16.202Z,15.48
2022-12-20T14:18:51.726Z,15.82
2022-12-20T14:21:19.328Z,15.88
2022-12-20T14:23:50.718Z,17.80
2022-12-20T14:26:38.720Z,16.00
2022-12-20T14:29:12.517Z,18.08
2022-12-20T14:31:42.824Z,16.60
2022-12-20T14:34:12.397Z,15.05
2022-12-20T14:36:47.742Z,17.15
2022-12-20T14:39:32.456Z,18.30
2022-12-20T14:42:09.896Z,20.48
2022-12-20T14:44:36.761Z,14.73
2022-12-20T14:47:27.485Z,17.77
2022-12-20T14:50:04.495Z,20.10
2022-12-20T14:52:39.539Z,21.05
2022-12-20T14:55:14.011Z,22.00
2022-12-20T14:57:52.076Z,19.88
2022-12-20T15:00:18.881Z,18.60
2022-12-20T15:02:46.006Z,17.15
2022-12-20T15:05:38.838Z,19.50
2022-12-20T15:08:11.929Z,18.30
2022-12-20T15:10:39.090Z,22.35
2022-12-20T15:13:12.475Z,19.10
2022-12-20T15:15:39.717Z,18.88
2022-12-20T15:18:25.015Z,16.33
2022-12-20T15:21:27.023Z,15.20
2022-12-20T15:23:55.812Z,13.77
2022-12-20T15:26:25.307Z,19.15
2022-12-20T15:28:52.272Z,18.00
2022-12-20T15:31:25.992Z,18.80
2022-12-20T15:33:58.981Z,21.15
2022-12-20T15:36:28.412Z,27.05
2022-12-20T15:39:12.505Z,22.42
2022-12-20T15:41:43.321Z,26.65
2022-12-20T15:44:37.268Z,25.10
2022-12-20T15:47:04.419Z,25.45
2022-12-20T15:49:32.527Z,22.65
2022-12-20T15:51:59.851Z,21.50
2022-12-20T15:56:56.487Z,22.02
2022-12-20T16:02:25.935Z,27.65
2022-12-20T16:04:53.614Z,31.15
2022-12-20T16:07:20.716Z,37.10
2022-12-20T16:09:47.756Z,34.25
2022-12-20T16:12:35.295Z,37.47
2022-12-20T16:15:02.184Z,36.25
2022-12-20T16:17:29.085Z,31.63
2022-12-20T16:19:55.920Z,33.05
2022-12-20T16:22:24.389Z,32.13
2022-12-20T16:24:51.932Z,32.72
2022-12-20T16:27:19.327Z,31.42
2022-12-20T16:29:46.249Z,29.42
2022-12-20T16:32:18.124Z,31.38
2022-12-20T16:34:45.623Z,30.83
2022-12-20T16:37:12.682Z,33.15
2022-12-20T16:39:39.994Z,32.60
2022-12-20T16:42:16.646Z,28.58
2022-12-20T16:44:45.315Z,29.48
2022-12-20T16:47:13.122Z,30.05
2022-12-20T16:49:44.498Z,27.58
2022-12-20T16:52:18.461Z,29.02
2022-12-20T16:54:45.383Z,27.60
2022-12-20T16:57:12.330Z,29.55
2022-12-20T16:59:39.130Z,25.00
2022-12-20T17:02:21.835Z,23.38
2022-12-20T17:04:48.845Z,26.90
2022-12-20T17:07:16.350Z,25.63
2022-12-20T17:09:43.214Z,25.63
2022-12-20T17:12:16.080Z,28.08
2022-12-20T17:14:43.129Z,25.73
2022-12-20T17:17:09.962Z,22.95
2022-12-20T17:19:37.110Z,23.30
2022-12-20T17:24:48.469Z,19.20
2022-12-20T17:27:15.270Z,20.52
2022-12-20T17:29:42.082Z,20.23
2022-12-20T17:32:23.516Z,18.98
2022-12-20T17:34:50.723Z,14.90
2022-12-20T17:37:18.142Z,21.02
2022-12-20T17:39:45.099Z,28.10
2022-12-20T17:42:15.468Z,27.35
2022-12-20T17:44:42.810Z,23.75
2022-12-20T17:47:09.793Z,21.27
2022-12-20T17:49:37.635Z,20.08
2022-12-20T17:52:04.670Z,21.75
2022-12-20T17:54:38.945Z,20.08
2022-12-20T17:57:12.220Z,21.25
2022-12-20T17:59:39.075Z,20.50
2022-12-20T18:02:21.814Z,22.40
2022-12-20T18:04:49.128Z,22.67
2022-12-20T18:07:15.971Z,20.80
2022-12-20T18:09:42.786Z,23.30
2022-12-20T18:12:11.069Z,18.85
2022-12-20T18:14:37.980Z,17.38
2022-12-20T18:17:04.906Z,18.70
2022-12-20T18:19:32.029Z,19.23
2022-12-20T18:22:00.070Z,22.77
2022-12-20T18:24:27.504Z,21.25
2022-12-20T18:26:54.360Z,24.92
2022-12-20T18:29:21.520Z,24.25
2022-12-20T18:31:48.423Z,20.60
2022-12-20T18:34:15.355Z,18.33
2022-12-20T18:36:42.280Z,17.10
2022-12-20T18:39:11.949Z,16.80
2022-12-20T18:41:38.771Z,18.00
2022-12-20T18:44:07.185Z,20.10
2022-12-20T18:46:34.600Z,26.48
2022-12-20T18:49:02.795Z,30.38
2022-12-20T18:51:32.987Z,27.08
2022-12-20T18:54:00.693Z,25.85
2022-12-20T18:56:30.948Z,23.75
2022-12-20T18:59:04.474Z,20.17
2022-12-20T19:01:35.809Z,19.35
2022-12-20T19:04:04.507Z,19.23
2022-12-20T19:06:31.976Z,18.38
2022-12-20T19:09:03.727Z,21.25
2022-12-20T19:11:30.666Z,20.02
2022-12-20T19:13:57.560Z,20.20
2022-12-20T19:16:31.956Z,20.10
2022-12-20T19:19:00.792Z,15.50
2022-12-20T19:21:30.340Z,16.52
2022-12-20T19:23:59.319Z,15.90
2022-12-20T19:26:27.820Z,17.83
2022-12-20T19:28:55.330Z,18.35
2022-12-20T19:31:27.620Z,22.00
2022-12-20T19:34:06.644Z,24.70
2022-12-20T19:36:45.487Z,22.15
2022-12-20T19:39:15.545Z,22.02
2022-12-20T19:41:42.659Z,22.95
2022-12-20T19:44:09.544Z,20.25
2022-12-20T19:46:36.546Z,22.13
2022-12-20T19:49:04.280Z,22.73
2022-12-20T19:51:31.967Z,22.15
2022-12-20T19:53:59.549Z,22.88
2022-12-20T19:56:32.705Z,22.55
2022-12-20T19:59:00.010Z,18.75
2022-12-20T20:01:27.819Z,19.90
2022-12-20T20:03:57.922Z,18.40
2022-12-20T20:06:25.698Z,17.83
2022-12-20T20:08:53.550Z,18.75
2022-12-20T20:11:21.182Z,19.33
2022-12-20T20:13:48.245Z,22.05
2022-12-20T20:16:20.266Z,21.77
2022-12-20T20:18:49.299Z,21.88
2022-12-20T20:21:19.153Z,20.60
2022-12-20T20:23:46.004Z,20.42
2022-12-20T20:26:19.239Z,20.85
2022-12-20T20:28:46.560Z,21.15
2022-12-20T20:31:15.691Z,18.92
2022-12-20T20:33:43.069Z,21.73
2022-12-20T20:36:12.834Z,23.98
2022-12-20T20:38:40.117Z,24.25
2022-12-20T20:41:06.971Z,26.25
2022-12-20T20:43:38.047Z,25.17
2022-12-20T20:46:07.392Z,26.40
2022-12-20T20:48:34.761Z,23.50
2022-12-20T20:51:01.754Z,26.77
2022-12-20T20:53:33.504Z,29.92
2022-12-20T20:56:05.611Z,26.20
2022-12-20T20:58:33.372Z,27.93
2022-12-20T21:01:01.944Z,27.80
2022-12-20T21:03:30.650Z,25.42
2022-12-20T21:08:45.088Z,26.52
2022-12-20T21:11:12.114Z,26.15
2022-12-20T21:13:39.113Z,26.83
2022-12-20T21:16:16.122Z,27.05
2022-12-20T21:18:43.253Z,25.17
2022-12-20T21:21:12.566Z,26.52
2022-12-20T21:23:43.395Z,26.08
2022-12-20T21:26:10.229Z,25.73
2022-12-20T21:28:37.040Z,25.23
2022-12-20T21:31:11.887Z,26.27
2022-12-20T21:33:39.174Z,27.15
2022-12-20T21:36:11.531Z,26.35
2022-12-20T21:38:38.362Z,27.80
2022-12-20T21:41:13.301Z,25.17
2022-12-20T21:43:40.373Z,28.23
2022-12-20T21:46:11.468Z,28.33
2022-12-20T21:48:43.567Z,28.27
2022-12-20T21:51:20.284Z,25.85
2022-12-20T21:53:48.572Z,24.27
2022-12-20T21:56:15.943Z,25.40
2022-12-20T21:58:43.885Z,24.83
2022-12-20T22:01:11.912Z,24.40
2022-12-20T22:03:38.951Z,24.58
2022-12-20T22:06:06.556Z,21.30
2022-12-20T22:08:34.061Z,20.67
2022-12-20T22:11:06.759Z,19.85
2022-12-20T22:13:40.641Z,21.75
2022-12-20T22:16:12.616Z,22.17
2022-12-20T22:18:40.585Z,20.77
2022-12-20T22:21:10.020Z,22.80
2022-12-20T22:23:37.837Z,16.73
2022-12-20T22:26:09.884Z,18.30
2022-12-20T22:28:37.579Z,17.60
2022-12-20T22:31:09.564Z,18.70
2022-12-20T22:33:37.755Z,16.92
2022-12-20T22:36:05.537Z,18.92
2022-12-20T22:38:32.638Z,17.58
2022-12-20T22:41:22.371Z,15.70
2022-12-20T22:43:49.884Z,16.50
2022-12-20T22:46:18.138Z,15.00
2022-12-20T22:48:46.209Z,15.88
2022-12-20T22:51:16.328Z,14.38
2022-12-20T22:53:43.823Z,14.93
2022-12-20T22:56:11.544Z,14.00
2022-12-20T22:58:39.543Z,14.40
2022-12-20T23:01:08.735Z,13.55
2022-12-20T23:03:37.040Z,12.93
2022-12-20T23:06:05.744Z,11.93
2022-12-20T23:08:36.018Z,12.50
2022-12-20T23:11:22.809Z,12.10
2022-12-20T23:14:08.347Z,11.48
2022-12-20T23:16:37.813Z,10.82
2022-12-20T23:19:04.756Z,10.38
2022-12-20T23:21:50.023Z,11.45
2022-12-20T23:24:16.951Z,8.88
2022-12-20T23:26:44.451Z,8.68
2022-12-20T23:29:11.937Z,9.32
2022-12-20T23:31:39.152Z,10.57
2022-12-20T23:34:06.589Z,8.48
2022-12-20T23:36:33.412Z,9.50
2022-12-20T23:39:00.690Z,9.30
2022-12-20T23:41:28.190Z,9.05
2022-12-20T23:43:55.199Z,8.82
2022-12-20T23:46:22.379Z,9.40
2022-12-20T23:48:51.184Z,8.88
2022-12-20T23:51:18.444Z,8.82
2022-12-20T23:53:45.417Z,9.20
2022-12-20T23:56:18.518Z,8.32
2022-12-20T23:58:47.309Z,8.15
